sensor_id;sensor_type;location;lat;lon;timestamp;pressure;altitude;pressure_sealevel;temperature;humidity
75460;BME280;64039;53.060;9.342;2023-06-14T00:01:25;101375.53;;;15.84;74.49
75460;BME280;64039;53.060;9.342;2023-06-14T00:03:51;101373.81;;;15.90;74.68
75460;BME280;64039;53.060;9.342;2023-06-14T00:06:17;101379.03;;;15.85;74.83
75460;BME280;64039;53.060;9.342;2023-06-14T00:08:43;101374.59;;;15.81;74.95
75460;BME280;64039;53.060;9.342;2023-06-14T00:11:08;101381.59;;;15.80;75.34
75460;BME280;64039;53.060;9.342;2023-06-14T00:13:34;101375.47;;;15.81;75.13
75460;BME280;64039;53.060;9.342;2023-06-14T00:15:59;101383.16;;;15.61;76.04
75460;BME280;64039;53.060;9.342;2023-06-14T00:18:25;101385.84;;;15.64;76.55
75460;BME280;64039;53.060;9.342;2023-06-14T00:20:51;101391.00;;;15.58;76.72
75460;BME280;64039;53.060;9.342;2023-06-14T00:23:17;101388.38;;;15.58;77.17
75460;BME280;64039;53.060;9.342;2023-06-14T00:25:43;101389.28;;;15.60;77.17
75460;BME280;64039;53.060;9.342;2023-06-14T00:28:08;101396.19;;;15.50;77.76
75460;BME280;64039;53.060;9.342;2023-06-14T00:30:34;101395.28;;;15.48;77.92
75460;BME280;64039;53.060;9.342;2023-06-14T00:32:59;101398.72;;;15.41;78.67
75460;BME280;64039;53.060;9.342;2023-06-14T00:35:25;101396.16;;;15.44;78.85
75460;BME280;64039;53.060;9.342;2023-06-14T00:37:50;101398.66;;;15.36;79.00
75460;BME280;64039;53.060;9.342;2023-06-14T00:40:16;101398.56;;;15.27;79.35
75460;BME280;64039;53.060;9.342;2023-06-14T00:42:42;101397.66;;;15.23;80.00
75460;BME280;64039;53.060;9.342;2023-06-14T00:45:07;101400.31;;;15.27;80.14
75460;BME280;64039;53.060;9.342;2023-06-14T00:47:34;101401.13;;;15.24;79.97
75460;BME280;64039;53.060;9.342;2023-06-14T00:50:01;101395.03;;;15.22;80.37
75460;BME280;64039;53.060;9.342;2023-06-14T00:52:27;101392.34;;;15.19;80.36
75460;BME280;64039;53.060;9.342;2023-06-14T00:54:53;101394.97;;;15.20;80.50
75460;BME280;64039;53.060;9.342;2023-06-14T00:57:19;101401.88;;;15.12;81.04
75460;BME280;64039;53.060;9.342;2023-06-14T00:59:47;101395.81;;;15.15;80.66
75460;BME280;64039;53.060;9.342;2023-06-14T01:02:14;101400.19;;;15.16;80.92
75460;BME280;64039;53.060;9.342;2023-06-14T01:04:41;101398.38;;;15.10;80.38
75460;BME280;64039;53.060;9.342;2023-06-14T01:07:46;101400.09;;;15.06;80.45
75460;BME280;64039;53.060;9.342;2023-06-14T01:10:29;101398.28;;;15.04;81.68
75460;BME280;64039;53.060;9.342;2023-06-14T01:15:45;101402.59;;;14.99;82.34
75460;BME280;64039;53.060;9.342;2023-06-14T01:18:11;101406.03;;;14.93;81.93
75460;BME280;64039;53.060;9.342;2023-06-14T01:20:46;101404.25;;;14.89;81.44
75460;BME280;64039;53.060;9.342;2023-06-14T01:23:19;101401.44;;;14.75;82.96
75460;BME280;64039;53.060;9.342;2023-06-14T01:25:47;101405.84;;;14.77;82.87
75460;BME280;64039;53.060;9.342;2023-06-14T01:28:15;101404.09;;;14.78;83.40
75460;BME280;64039;53.060;9.342;2023-06-14T01:30:44;101408.22;;;14.63;83.73
75460;BME280;64039;53.060;9.342;2023-06-14T01:33:16;101410.78;;;14.57;84.38
75460;BME280;64039;53.060;9.342;2023-06-14T01:35:44;101409.88;;;14.57;85.32
75460;BME280;64039;53.060;9.342;2023-06-14T01:38:12;101416.03;;;14.59;83.98
75460;BME280;64039;53.060;9.342;2023-06-14T01:40:39;101410.78;;;14.59;84.87
75460;BME280;64039;53.060;9.342;2023-06-14T01:43:05;101410.63;;;14.48;85.36
75460;BME280;64039;53.060;9.342;2023-06-14T01:45:31;101410.56;;;14.45;85.18
75460;BME280;64039;53.060;9.342;2023-06-14T01:47:58;101414.88;;;14.40;86.11
75460;BME280;64039;53.060;9.342;2023-06-14T01:50:23;101415.75;;;14.40;84.76
75460;BME280;64039;53.060;9.342;2023-06-14T01:52:48;101417.56;;;14.43;86.20
75460;BME280;64039;53.060;9.342;2023-06-14T01:55:14;101418.34;;;14.39;86.59
75460;BME280;64039;53.060;9.342;2023-06-14T01:57:43;101414.00;;;14.39;86.28
75460;BME280;64039;53.060;9.342;2023-06-14T02:00:08;101421.81;;;14.36;86.63
75460;BME280;64039;53.060;9.342;2023-06-14T02:02:38;101417.41;;;14.34;86.15
75460;BME280;64039;53.060;9.342;2023-06-14T02:05:04;101415.34;;;14.14;87.12
75460;BME280;64039;53.060;9.342;2023-06-14T02:07:29;101419.59;;;14.07;88.08
75460;BME280;64039;53.060;9.342;2023-06-14T02:09:55;101419.56;;;14.04;87.98
75460;BME280;64039;53.060;9.342;2023-06-14T02:12:21;101413.47;;;14.05;88.19
75460;BME280;64039;53.060;9.342;2023-06-14T02:14:46;101412.50;;;14.00;89.14
75460;BME280;64039;53.060;9.342;2023-06-14T02:17:12;101420.16;;;13.88;90.01
75460;BME280;64039;53.060;9.342;2023-06-14T02:19:37;101420.97;;;13.85;89.50
75460;BME280;64039;53.060;9.342;2023-06-14T02:22:03;101423.44;;;13.76;89.46
75460;BME280;64039;53.060;9.342;2023-06-14T02:24:28;101420.94;;;13.83;90.73
75460;BME280;64039;53.060;9.342;2023-06-14T02:26:54;101418.34;;;13.83;90.14
75460;BME280;64039;53.060;9.342;2023-06-14T02:29:20;101420.03;;;13.81;90.25
75460;BME280;64039;53.060;9.342;2023-06-14T02:31:46;101426.94;;;13.78;90.56
75460;BME280;64039;53.060;9.342;2023-06-14T02:34:13;101422.81;;;13.89;90.39
75460;BME280;64039;53.060;9.342;2023-06-14T02:36:39;101428.69;;;13.77;90.61
75460;BME280;64039;53.060;9.342;2023-06-14T02:39:10;101428.56;;;13.70;90.95
75460;BME280;64039;53.060;9.342;2023-06-14T02:41:35;101435.44;;;13.64;91.37
75460;BME280;64039;53.060;9.342;2023-06-14T02:44:01;101433.66;;;13.62;92.09
75460;BME280;64039;53.060;9.342;2023-06-14T02:46:26;101438.66;;;13.49;91.63
75460;BME280;64039;53.060;9.342;2023-06-14T02:48:52;101433.50;;;13.52;92.58
75460;BME280;64039;53.060;9.342;2023-06-14T02:51:17;101435.13;;;13.47;92.11
75460;BME280;64039;53.060;9.342;2023-06-14T02:53:43;101438.31;;;13.34;92.68
75460;BME280;64039;53.060;9.342;2023-06-14T02:56:09;101449.50;;;13.25;93.06
75460;BME280;64039;53.060;9.342;2023-06-14T02:58:36;101444.63;;;13.44;93.40
75460;BME280;64039;53.060;9.342;2023-06-14T03:01:02;101452.25;;;13.33;94.09
75460;BME280;64039;53.060;9.342;2023-06-14T03:03:29;101446.19;;;13.35;94.30
75460;BME280;64039;53.060;9.342;2023-06-14T03:05:55;101457.47;;;13.33;93.07
75460;BME280;64039;53.060;9.342;2023-06-14T03:08:20;101446.25;;;13.37;93.48
75460;BME280;64039;53.060;9.342;2023-06-14T03:10:46;101454.81;;;13.30;94.15
75460;BME280;64039;53.060;9.342;2023-06-14T03:13:15;101458.94;;;13.20;95.30
75460;BME280;64039;53.060;9.342;2023-06-14T03:15:42;101464.16;;;13.18;95.53
75460;BME280;64039;53.060;9.342;2023-06-14T03:18:10;101465.88;;;13.18;96.35
75460;BME280;64039;53.060;9.342;2023-06-14T03:20:37;101466.78;;;13.18;95.84
75460;BME280;64039;53.060;9.342;2023-06-14T03:23:02;101469.38;;;13.18;96.46
75460;BME280;64039;53.060;9.342;2023-06-14T03:25:29;101465.84;;;13.16;96.65
75460;BME280;64039;53.060;9.342;2023-06-14T03:27:55;101467.31;;;13.03;97.28
75460;BME280;64039;53.060;9.342;2023-06-14T03:30:21;101470.69;;;12.98;97.06
75460;BME280;64039;53.060;9.342;2023-06-14T03:32:46;101480.19;;;12.94;97.27
75460;BME280;64039;53.060;9.342;2023-06-14T03:35:12;101475.66;;;12.85;97.69
75460;BME280;64039;53.060;9.342;2023-06-14T03:37:43;101477.66;;;12.97;97.94
75460;BME280;64039;53.060;9.342;2023-06-14T03:40:09;101473.47;;;13.05;97.52
75460;BME280;64039;53.060;9.342;2023-06-14T03:42:34;101479.63;;;13.08;97.09
75460;BME280;64039;53.060;9.342;2023-06-14T03:45:00;101479.63;;;13.08;96.96
75460;BME280;64039;53.060;9.342;2023-06-14T03:47:25;101476.00;;;13.02;97.86
75460;BME280;64039;53.060;9.342;2023-06-14T03:49:52;101489.88;;;12.98;99.12
75460;BME280;64039;53.060;9.342;2023-06-14T03:52:17;101480.25;;;12.96;99.02
75460;BME280;64039;53.060;9.342;2023-06-14T03:54:43;101487.19;;;12.95;100.00
75460;BME280;64039;53.060;9.342;2023-06-14T03:57:09;101490.63;;;12.94;100.00
75460;BME280;64039;53.060;9.342;2023-06-14T03:59:35;101489.75;;;12.92;100.00
75460;BME280;64039;53.060;9.342;2023-06-14T04:02:02;101485.41;;;12.94;100.00
75460;BME280;64039;53.060;9.342;2023-06-14T04:04:28;101494.16;;;12.96;100.00
75460;BME280;64039;53.060;9.342;2023-06-14T04:06:57;101489.75;;;12.94;100.00
75460;BME280;64039;53.060;9.342;2023-06-14T04:09:24;101490.91;;;13.07;100.00
75460;BME280;64039;53.060;9.342;2023-06-14T04:11:52;101490.19;;;13.14;100.00
75460;BME280;64039;53.060;9.342;2023-06-14T04:14:19;101491.78;;;13.07;100.00
75460;BME280;64039;53.060;9.342;2023-06-14T04:16:48;101500.66;;;13.14;100.00
75460;BME280;64039;53.060;9.342;2023-06-14T04:19:15;101499.06;;;13.20;100.00
75460;BME280;64039;53.060;9.342;2023-06-14T04:21:40;101505.34;;;13.29;100.00
75460;BME280;64039;53.060;9.342;2023-06-14T04:24:06;101503.81;;;13.39;99.74
75460;BME280;64039;53.060;9.342;2023-06-14T04:26:32;101510.09;;;13.47;99.31
75460;BME280;64039;53.060;9.342;2023-06-14T04:29:01;101504.09;;;13.52;99.23
75460;BME280;64039;53.060;9.342;2023-06-14T04:31:29;101510.09;;;13.48;99.57
75460;BME280;64039;53.060;9.342;2023-06-14T04:33:59;101500.88;;;13.66;98.79
75460;BME280;64039;53.060;9.342;2023-06-14T04:36:24;101510.59;;;13.73;97.98
75460;BME280;64039;53.060;9.342;2023-06-14T04:38:51;101515.78;;;13.70;98.34
75460;BME280;64039;53.060;9.342;2023-06-14T04:41:22;101522.91;;;13.79;97.95
75460;BME280;64039;53.060;9.342;2023-06-14T04:43:49;101526.53;;;13.84;97.01
75460;BME280;64039;53.060;9.342;2023-06-14T04:46:15;101525.72;;;13.88;97.29
75460;BME280;64039;53.060;9.342;2023-06-14T04:48:41;101528.13;;;13.77;97.56
75460;BME280;64039;53.060;9.342;2023-06-14T04:51:10;101530.03;;;13.86;97.27
75460;BME280;64039;53.060;9.342;2023-06-14T04:53:36;101531.09;;;13.96;96.32
75460;BME280;64039;53.060;9.342;2023-06-14T04:56:02;101530.38;;;14.06;96.09
75460;BME280;64039;53.060;9.342;2023-06-14T04:58:28;101530.53;;;14.14;96.01
75460;BME280;64039;53.060;9.342;2023-06-14T05:00:54;101535.84;;;14.17;95.63
75460;BME280;64039;53.060;9.342;2023-06-14T05:03:21;101538.31;;;14.11;95.84
75460;BME280;64039;53.060;9.342;2023-06-14T05:05:48;101539.34;;;14.18;95.57
75460;BME280;64039;53.060;9.342;2023-06-14T05:08:14;101537.06;;;14.38;94.63
75460;BME280;64039;53.060;9.342;2023-06-14T05:10:39;101525.81;;;14.45;94.39
75460;BME280;64039;53.060;9.342;2023-06-14T05:13:05;101539.91;;;14.52;93.92
75460;BME280;64039;53.060;9.342;2023-06-14T05:15:31;101541.59;;;14.48;93.17
75460;BME280;64039;53.060;9.342;2023-06-14T05:17:57;101545.22;;;14.56;93.91
75460;BME280;64039;53.060;9.342;2023-06-14T05:20:24;101541.84;;;14.63;92.70
75460;BME280;64039;53.060;9.342;2023-06-14T05:22:51;101541.09;;;14.69;91.87
75460;BME280;64039;53.060;9.342;2023-06-14T05:25:19;101549.06;;;14.75;92.17
75460;BME280;64039;53.060;9.342;2023-06-14T05:27:44;101543.19;;;14.90;91.47
75460;BME280;64039;53.060;9.342;2023-06-14T05:30:10;101546.03;;;15.06;90.39
75460;BME280;64039;53.060;9.342;2023-06-14T05:32:36;101552.25;;;15.14;90.14
75460;BME280;64039;53.060;9.342;2023-06-14T05:35:02;101548.06;;;15.27;88.92
75460;BME280;64039;53.060;9.342;2023-06-14T05:37:27;101548.19;;;15.38;88.98
75460;BME280;64039;53.060;9.342;2023-06-14T05:39:53;101548.25;;;15.43;88.46
75460;BME280;64039;53.060;9.342;2023-06-14T05:42:18;101548.44;;;15.56;87.56
75460;BME280;64039;53.060;9.342;2023-06-14T05:44:43;101545.91;;;15.64;86.79
75460;BME280;64039;53.060;9.342;2023-06-14T05:47:09;101552.16;;;15.76;86.09
75460;BME280;64039;53.060;9.342;2023-06-14T05:49:34;101549.72;;;15.88;83.91
75460;BME280;64039;53.060;9.342;2023-06-14T05:52:00;101550.63;;;15.92;84.40
75460;BME280;64039;53.060;9.342;2023-06-14T05:54:25;101557.69;;;16.00;82.60
75460;BME280;64039;53.060;9.342;2023-06-14T05:56:51;101562.31;;;16.23;82.82
75460;BME280;64039;53.060;9.342;2023-06-14T05:59:17;101565.00;;;16.31;82.99
75460;BME280;64039;53.060;9.342;2023-06-14T06:01:42;101567.59;;;16.26;82.20
75460;BME280;64039;53.060;9.342;2023-06-14T06:04:08;101570.34;;;16.42;81.21
75460;BME280;64039;53.060;9.342;2023-06-14T06:06:34;101559.06;;;16.52;80.65
75460;BME280;64039;53.060;9.342;2023-06-14T06:09:01;101563.63;;;16.70;79.80
75460;BME280;64039;53.060;9.342;2023-06-14T06:11:26;101571.63;;;16.89;79.46
75460;BME280;64039;53.060;9.342;2023-06-14T06:13:52;101561.19;;;16.96;78.95
75460;BME280;64039;53.060;9.342;2023-06-14T06:16:17;101569.13;;;17.03;78.27
75460;BME280;64039;53.060;9.342;2023-06-14T06:18:43;101569.16;;;17.09;76.36
75460;BME280;64039;53.060;9.342;2023-06-14T06:21:08;101562.25;;;17.29;76.05
75460;BME280;64039;53.060;9.342;2023-06-14T06:23:34;101560.63;;;17.52;74.79
75460;BME280;64039;53.060;9.342;2023-06-14T06:26:01;101571.16;;;17.58;74.37
75460;BME280;64039;53.060;9.342;2023-06-14T06:28:26;101578.25;;;17.73;72.45
75460;BME280;64039;53.060;9.342;2023-06-14T06:30:52;101575.59;;;17.76;72.13
75460;BME280;64039;53.060;9.342;2023-06-14T06:33:18;101571.22;;;17.73;72.59
75460;BME280;64039;53.060;9.342;2023-06-14T06:35:44;101572.16;;;17.92;71.13
75460;BME280;64039;53.060;9.342;2023-06-14T06:38:10;101573.00;;;17.85;69.16
75460;BME280;64039;53.060;9.342;2023-06-14T06:40:36;101571.34;;;18.03;68.61
75460;BME280;64039;53.060;9.342;2023-06-14T06:43:04;101572.25;;;18.16;68.64
75460;BME280;64039;53.060;9.342;2023-06-14T06:45:30;101579.31;;;18.34;67.56
75460;BME280;64039;53.060;9.342;2023-06-14T06:47:56;101583.72;;;18.36;66.74
75460;BME280;64039;53.060;9.342;2023-06-14T06:50:22;101586.34;;;18.43;66.64
75460;BME280;64039;53.060;9.342;2023-06-14T06:52:48;101587.22;;;18.52;64.19
75460;BME280;64039;53.060;9.342;2023-06-14T06:55:14;101584.59;;;18.54;64.83
75460;BME280;64039;53.060;9.342;2023-06-14T06:57:40;101586.34;;;18.58;63.18
75460;BME280;64039;53.060;9.342;2023-06-14T07:00:06;101588.97;;;18.58;62.74
75460;BME280;64039;53.060;9.342;2023-06-14T07:02:34;101591.63;;;18.57;61.59
75460;BME280;64039;53.060;9.342;2023-06-14T07:04:59;101588.09;;;18.64;61.45
75460;BME280;64039;53.060;9.342;2023-06-14T07:07:25;101593.34;;;18.90;60.51
75460;BME280;64039;53.060;9.342;2023-06-14T07:09:51;101596.00;;;19.12;59.80
75460;BME280;64039;53.060;9.342;2023-06-14T07:12:16;101596.00;;;19.06;59.23
75460;BME280;64039;53.060;9.342;2023-06-14T07:14:42;101592.50;;;19.08;58.37
75460;BME280;64039;53.060;9.342;2023-06-14T07:17:07;101590.72;;;19.13;58.83
75460;BME280;64039;53.060;9.342;2023-06-14T07:19:33;101592.44;;;19.25;58.60
75460;BME280;64039;53.060;9.342;2023-06-14T07:21:58;101602.06;;;19.48;58.37
75460;BME280;64039;53.060;9.342;2023-06-14T07:24:24;101603.78;;;19.58;57.58
75460;BME280;64039;53.060;9.342;2023-06-14T07:26:49;101602.03;;;19.57;55.57
75460;BME280;64039;53.060;9.342;2023-06-14T07:29:15;101602.88;;;19.66;56.11
75460;BME280;64039;53.060;9.342;2023-06-14T07:31:41;101596.66;;;19.85;56.28
75460;BME280;64039;53.060;9.342;2023-06-14T07:34:07;101597.63;;;19.67;55.12
75460;BME280;64039;53.060;9.342;2023-06-14T07:36:32;101597.69;;;19.42;54.96
75460;BME280;64039;53.060;9.342;2023-06-14T07:38:58;101597.75;;;19.28;55.19
75460;BME280;64039;53.060;9.342;2023-06-14T07:41:24;101595.97;;;19.24;55.99
75460;BME280;64039;53.060;9.342;2023-06-14T07:43:50;101597.66;;;19.45;55.55
75460;BME280;64039;53.060;9.342;2023-06-14T07:46:16;101595.91;;;19.47;55.41
75460;BME280;64039;53.060;9.342;2023-06-14T07:48:41;101590.69;;;19.27;55.52
75460;BME280;64039;53.060;9.342;2023-06-14T07:51:07;101597.72;;;19.38;55.43
75460;BME280;64039;53.060;9.342;2023-06-14T07:53:32;101587.03;;;19.72;54.78
75460;BME280;64039;53.060;9.342;2023-06-14T07:55:58;101593.97;;;19.98;55.32
75460;BME280;64039;53.060;9.342;2023-06-14T07:58:23;101598.44;;;19.86;53.89
75460;BME280;64039;53.060;9.342;2023-06-14T08:00:49;101586.94;;;19.97;53.37
75460;BME280;64039;53.060;9.342;2023-06-14T08:03:15;101589.56;;;19.95;52.93
75460;BME280;64039;53.060;9.342;2023-06-14T08:05:40;101592.94;;;20.20;53.55
75460;BME280;64039;53.060;9.342;2023-06-14T08:08:06;101599.19;;;20.08;53.57
75460;BME280;64039;53.060;9.342;2023-06-14T08:10:31;101592.03;;;20.26;52.52
75460;BME280;64039;53.060;9.342;2023-06-14T08:12:57;101587.53;;;20.39;52.92
75460;BME280;64039;53.060;9.342;2023-06-14T08:15:22;101585.50;;;20.70;52.31
75460;BME280;64039;53.060;9.342;2023-06-14T08:17:48;101591.50;;;20.93;51.97
75460;BME280;64039;53.060;9.342;2023-06-14T08:20:13;101594.22;;;20.86;51.90
75460;BME280;64039;53.060;9.342;2023-06-14T08:22:41;101590.00;;;20.64;51.89
75460;BME280;64039;53.060;9.342;2023-06-14T08:25:08;101592.56;;;20.75;52.13
75460;BME280;64039;53.060;9.342;2023-06-14T08:27:34;101585.47;;;20.81;51.48
75460;BME280;64039;53.060;9.342;2023-06-14T08:29:59;101584.56;;;20.84;52.08
75460;BME280;64039;53.060;9.342;2023-06-14T08:32:25;101578.25;;;20.96;52.01
75460;BME280;64039;53.060;9.342;2023-06-14T08:34:50;101584.47;;;20.93;51.11
75460;BME280;64039;53.060;9.342;2023-06-14T08:37:16;101577.53;;;20.81;51.55
75460;BME280;64039;53.060;9.342;2023-06-14T08:39:42;101582.09;;;20.59;52.02
75460;BME280;64039;53.060;9.342;2023-06-14T08:42:09;101574.94;;;20.73;51.54
75460;BME280;64039;53.060;9.342;2023-06-14T08:44:35;101574.06;;;20.75;51.79
75460;BME280;64039;53.060;9.342;2023-06-14T08:47:01;101579.13;;;20.96;51.51
75460;BME280;64039;53.060;9.342;2023-06-14T08:49:29;101577.06;;;21.25;51.85
75460;BME280;64039;53.060;9.342;2023-06-14T08:51:58;101578.44;;;21.61;50.42
75460;BME280;64039;53.060;9.342;2023-06-14T08:54:25;101577.63;;;21.53;49.89
75460;BME280;64039;53.060;9.342;2023-06-14T08:56:53;101584.13;;;21.24;50.27
75460;BME280;64039;53.060;9.342;2023-06-14T08:59:25;101579.25;;;20.84;50.51
75460;BME280;64039;53.060;9.342;2023-06-14T09:01:52;101578.06;;;21.13;50.59
75460;BME280;64039;53.060;9.342;2023-06-14T09:04:18;101575.13;;;21.41;50.20
75460;BME280;64039;53.060;9.342;2023-06-14T09:06:45;101586.13;;;21.80;49.86
75460;BME280;64039;53.060;9.342;2023-06-14T09:09:10;101583.19;;;22.00;47.85
75460;BME280;64039;53.060;9.342;2023-06-14T09:11:36;101582.19;;;22.10;48.34
75460;BME280;64039;53.060;9.342;2023-06-14T09:14:01;101592.69;;;22.17;48.82
75460;BME280;64039;53.060;9.342;2023-06-14T09:16:27;101577.56;;;22.23;48.48
75460;BME280;64039;53.060;9.342;2023-06-14T09:18:53;101584.91;;;22.06;48.53
75460;BME280;64039;53.060;9.342;2023-06-14T09:21:19;101589.75;;;22.35;47.87
75460;BME280;64039;53.060;9.342;2023-06-14T09:23:47;101586.75;;;22.01;48.48
75460;BME280;64039;53.060;9.342;2023-06-14T09:26:17;101583.94;;;22.11;48.41
75460;BME280;64039;53.060;9.342;2023-06-14T09:28:49;101581.88;;;22.32;48.16
75460;BME280;64039;53.060;9.342;2023-06-14T09:31:19;101588.78;;;22.44;48.09
75460;BME280;64039;53.060;9.342;2023-06-14T09:33:48;101576.66;;;22.24;47.75
75460;BME280;64039;53.060;9.342;2023-06-14T09:36:20;101589.75;;;22.37;47.83
75460;BME280;64039;53.060;9.342;2023-06-14T09:38:57;101584.91;;;22.64;46.94
75460;BME280;64039;53.060;9.342;2023-06-14T09:41:43;101579.53;;;22.70;46.78
75460;BME280;64039;53.060;9.342;2023-06-14T09:44:10;101579.81;;;23.03;46.22
75460;BME280;64039;53.060;9.342;2023-06-14T09:46:37;101576.75;;;23.24;46.24
75460;BME280;64039;53.060;9.342;2023-06-14T09:49:04;101582.13;;;23.23;46.11
75460;BME280;64039;53.060;9.342;2023-06-14T09:51:31;101574.69;;;23.39;45.96
75460;BME280;64039;53.060;9.342;2023-06-14T09:54:01;101570.56;;;23.68;45.57
75460;BME280;64039;53.060;9.342;2023-06-14T09:56:41;101573.16;;;24.12;44.59
75460;BME280;64039;53.060;9.342;2023-06-14T09:59:09;101574.47;;;23.92;43.77
75460;BME280;64039;53.060;9.342;2023-06-14T10:01:43;101573.44;;;23.12;44.46
75460;BME280;64039;53.060;9.342;2023-06-14T10:04:10;101575.63;;;23.36;44.54
75460;BME280;64039;53.060;9.342;2023-06-14T10:06:37;101577.25;;;23.45;43.70
75460;BME280;64039;53.060;9.342;2023-06-14T10:09:07;101572.56;;;23.58;43.62
75460;BME280;64039;53.060;9.342;2023-06-14T10:11:34;101576.13;;;23.55;44.05
75460;BME280;64039;53.060;9.342;2023-06-14T10:14:02;101558.50;;;23.94;43.47
75460;BME280;64039;53.060;9.342;2023-06-14T10:16:35;101557.44;;;24.01;42.71
75460;BME280;64039;53.060;9.342;2023-06-14T10:22:02;101563.25;;;23.79;41.93
75460;BME280;64039;53.060;9.342;2023-06-14T10:24:33;101562.19;;;24.26;42.41
75460;BME280;64039;53.060;9.342;2023-06-14T10:27:00;101543.84;;;24.15;41.87
75460;BME280;64039;53.060;9.342;2023-06-14T10:29:29;101556.50;;;24.04;42.08
75460;BME280;64039;53.060;9.342;2023-06-14T10:31:59;101562.25;;;24.23;42.03
75460;BME280;64039;53.060;9.342;2023-06-14T10:34:29;101548.88;;;24.26;41.22
75460;BME280;64039;53.060;9.342;2023-06-14T10:37:15;101550.06;;;24.50;41.45
75460;BME280;64039;53.060;9.342;2023-06-14T10:39:44;101549.56;;;24.34;42.45
75460;BME280;64039;53.060;9.342;2023-06-14T10:42:13;101544.34;;;24.64;40.96
75460;BME280;64039;53.060;9.342;2023-06-14T10:44:49;101536.28;;;24.70;41.46
75460;BME280;64039;53.060;9.342;2023-06-14T10:49:50;101543.19;;;24.77;42.13
75460;BME280;64039;53.060;9.342;2023-06-14T10:52:19;101546.84;;;24.37;42.60
75460;BME280;64039;53.060;9.342;2023-06-14T10:55:15;101550.13;;;24.11;42.60
75460;BME280;64039;53.060;9.342;2023-06-14T10:57:52;101537.88;;;24.04;42.29
75460;BME280;64039;53.060;9.342;2023-06-14T11:00:28;101552.81;;;23.68;43.53
75460;BME280;64039;53.060;9.342;2023-06-14T11:08:27;101542.19;;;23.68;44.36
75460;BME280;64039;53.060;9.342;2023-06-14T11:11:00;101534.84;;;23.80;43.20
75460;BME280;64039;53.060;9.342;2023-06-14T11:13:27;101535.31;;;24.37;43.13
75460;BME280;64039;53.060;9.342;2023-06-14T11:15:54;101530.88;;;24.37;42.50
75460;BME280;64039;53.060;9.342;2023-06-14T11:18:22;101538.03;;;24.70;42.68
75460;BME280;64039;53.060;9.342;2023-06-14T11:20:50;101543.44;;;24.65;42.21
75460;BME280;64039;53.060;9.342;2023-06-14T11:23:16;101533.25;;;24.84;41.99
75460;BME280;64039;53.060;9.342;2023-06-14T11:25:41;101534.50;;;25.02;41.35
75460;BME280;64039;53.060;9.342;2023-06-14T11:28:07;101529.53;;;25.21;40.75
75460;BME280;64039;53.060;9.342;2023-06-14T11:30:32;101528.03;;;25.11;41.06
75460;BME280;64039;53.060;9.342;2023-06-14T11:32:58;101512.41;;;24.65;41.72
75460;BME280;64039;53.060;9.342;2023-06-14T11:35:24;101514.50;;;24.53;42.32
75460;BME280;64039;53.060;9.342;2023-06-14T11:37:56;101520.47;;;24.62;42.16
75460;BME280;64039;53.060;9.342;2023-06-14T11:40:25;101513.63;;;24.52;41.56
75460;BME280;64039;53.060;9.342;2023-06-14T11:43:00;101515.44;;;24.52;41.34
75460;BME280;64039;53.060;9.342;2023-06-14T11:45:27;101516.06;;;24.94;41.84
75460;BME280;64039;53.060;9.342;2023-06-14T11:47:55;101514.25;;;25.28;41.70
75460;BME280;64039;53.060;9.342;2023-06-14T11:50:22;101506.47;;;25.80;39.98
75460;BME280;64039;53.060;9.342;2023-06-14T11:52:54;101505.09;;;25.95;40.01
75460;BME280;64039;53.060;9.342;2023-06-14T11:55:22;101504.13;;;26.26;39.54
75460;BME280;64039;53.060;9.342;2023-06-14T11:57:47;101511.84;;;26.07;39.32
75460;BME280;64039;53.060;9.342;2023-06-14T12:00:13;101505.34;;;25.87;38.84
75460;BME280;64039;53.060;9.342;2023-06-14T12:02:41;101495.09;;;25.75;39.15
75460;BME280;64039;53.060;9.342;2023-06-14T12:05:07;101503.22;;;25.99;38.96
75460;BME280;64039;53.060;9.342;2023-06-14T12:07:37;101490.84;;;25.38;39.13
75460;BME280;64039;53.060;9.342;2023-06-14T12:10:06;101508.56;;;25.40;40.12
75460;BME280;64039;53.060;9.342;2023-06-14T12:12:37;101504.38;;;25.32;40.11
75460;BME280;64039;53.060;9.342;2023-06-14T12:15:07;101499.38;;;25.21;39.70
75460;BME280;64039;53.060;9.342;2023-06-14T12:17:34;101497.28;;;25.62;38.67
75460;BME280;64039;53.060;9.342;2023-06-14T12:20:08;101494.88;;;25.81;39.08
75460;BME280;64039;53.060;9.342;2023-06-14T12:22:59;101486.59;;;25.62;38.49
75460;BME280;64039;53.060;9.342;2023-06-14T12:25:36;101484.69;;;25.94;39.08
75460;BME280;64039;53.060;9.342;2023-06-14T12:28:12;101485.97;;;26.11;38.78
75460;BME280;64039;53.060;9.342;2023-06-14T12:30:38;101497.63;;;26.08;38.06
75460;BME280;64039;53.060;9.342;2023-06-14T12:33:04;101489.91;;;25.40;38.15
75460;BME280;64039;53.060;9.342;2023-06-14T12:35:30;101485.91;;;25.25;39.24
75460;BME280;64039;53.060;9.342;2023-06-14T12:37:56;101487.75;;;25.23;39.49
75460;BME280;64039;53.060;9.342;2023-06-14T12:40:22;101485.09;;;24.92;39.73
75460;BME280;64039;53.060;9.342;2023-06-14T12:42:47;101485.69;;;24.70;40.15
75460;BME280;64039;53.060;9.342;2023-06-14T12:45:13;101494.47;;;24.74;40.20
75460;BME280;64039;53.060;9.342;2023-06-14T12:47:39;101482.03;;;24.40;40.23
75460;BME280;64039;53.060;9.342;2023-06-14T12:50:05;101487.03;;;24.17;41.39
75460;BME280;64039;53.060;9.342;2023-06-14T12:52:31;101496.47;;;24.29;41.08
75460;BME280;64039;53.060;9.342;2023-06-14T12:55:01;101501.16;;;24.20;41.13
75460;BME280;64039;53.060;9.342;2023-06-14T12:57:28;101496.72;;;24.55;40.89
75460;BME280;64039;53.060;9.342;2023-06-14T12:59:53;101496.69;;;25.21;40.87
75460;BME280;64039;53.060;9.342;2023-06-14T13:02:19;101492.13;;;25.56;39.74
75460;BME280;64039;53.060;9.342;2023-06-14T13:04:49;101487.53;;;25.61;38.23